x

Milford Haven C.b. (03604) Weather Station

8:00am - Sun 1st Feb 2015 All times are GMT.

  • Wind
    19mph, 36mph gusts
  • Air Temp 39°f
  • Sea Pressure 1006mb
  • Milford Haven C.b.
  • Milford Haven C.b.

More Historic Weather Station data

Upgrade to MSW Pro to gain access to the past 30 days of data for over 8000 Wavebouys and Weather Stations around the globe.

Join Pro

Comparision Forecast

View Surf forecast
   
Sun 02/01 8:00am 19 36 mph 1006mb 39f
7:00am 21 34 mph 1005mb 39f
6:00am 26 39 mph 1004mb 40f
5:00am 24 43 mph 1004mb 40f
4:00am 24 40 mph 1004mb 40f
3:00am 21 41 mph 1003mb 39f
2:00am 24 44 mph 1003mb 39f
1:00am 21 38 mph 1003mb 40f
12:00am 24 43 mph 1003mb 40f
Sat 01/31 11:00pm 28 41 mph 1002mb 40f
10:00pm 23 43 mph 1002mb 40f
9:00pm 29 46 mph 1001mb 40f
8:00pm 26 44 mph 1001mb 40f
7:00pm 29 49 mph 1000mb 40f
6:00pm 26 47 mph 998mb 41f
5:00pm 26 45 mph 997mb 42f
4:00pm 26 47 mph 996mb 42f
3:00pm 30 51 mph 995mb 43f
2:00pm 28 45 mph 994mb 42f
1:00pm 29 43 mph 993mb 42f
12:00pm 30 46 mph 992mb 41f
11:00am 31 48 mph 991mb 42f
10:00am 30 47 mph 989mb 41f
9:00am 30 46 mph 988mb 41f
8:00am 31 47 mph 987mb 42f
7:00am 25 45 mph 986mb 41f
6:00am 25 41 mph 985mb 41f
5:00am 23 39 mph 985mb 40f
4:00am 22 38 mph 985mb 40f
3:00am 21 37 mph 985mb 40f
2:00am 21 34 mph 985mb 40f
1:00am 23 40 mph 984mb 40f
12:00am 21 36 mph 984mb 39f
Fri 01/30 11:00pm 22 33 mph 984mb 40f
10:00pm 21 36 mph 984mb 40f
9:00pm 21 36 mph 984mb 40f
8:00pm 19 31 mph 984mb 40f
7:00pm 13
mph
984mb 41f
6:00pm 14
mph
983mb 42f
5:00pm 14
mph
983mb 42f
4:00pm 15
mph
984mb 43f
3:00pm 17
mph
984mb 44f
2:00pm 17 30 mph 984mb 44f
1:00pm 18 33 mph 984mb 45f
12:00pm 21 31 mph 984mb 44f
11:00am 21 36 mph 984mb 44f
10:00am 19 43 mph 984mb 44f
9:00am 24 39 mph 984mb 43f
8:00am 24 39 mph 983mb 43f
7:00am 22 34 mph 983mb 42f
6:00am 22 40 mph 983mb 41f
5:00am 29 53 mph 982mb 41f
4:00am 31 54 mph 980mb 42f
3:00am 32 56 mph 979mb 42f
2:00am 29 56 mph 979mb 42f
1:00am 36 60 mph 980mb 43f
12:00am 24 40 mph 981mb 43f
Thu 01/29 11:00pm 21 36 mph 982mb 43f
10:00pm 21 40 mph 983mb 43f
9:00pm 23 39 mph 984mb 41f
8:00pm 22 38 mph 984mb 41f
7:00pm 22 40 mph 984mb 39f
6:00pm 23 43 mph 984mb 39f
5:00pm 25 47 mph 983mb 40f
4:00pm 28 47 mph 982mb 40f
3:00pm 31 52 mph 982mb 39f
2:00pm 19 44 mph 982mb 41f
1:00pm 24 46 mph 983mb 41f
12:00pm 21 43 mph 984mb 42f
11:00am 22 39 mph 985mb 42f
10:00am 18 37 mph 987mb 42f
9:00am 18 37 mph 988mb 41f
8:00am 17 33 mph 989mb 42f
7:00am 16 41 mph 991mb 42f
6:00am 19 37 mph 992mb 42f
5:00am 19 39 mph 993mb 42f
4:00am 21 36 mph 995mb 42f
3:00am 21 40 mph 996mb 42f
2:00am 18 34 mph 998mb 42f
1:00am 18 34 mph 999mb 41f
12:00am 16 33 mph 1000mb 41f
Wed 01/28 11:00pm 18 33 mph 1001mb 42f
10:00pm 21 38 mph 1002mb 42f
9:00pm 22 39 mph 1003mb 42f
8:00pm 21 39 mph 1004mb 42f
7:00pm 19 37 mph 1005mb 41f
6:00pm 18 36 mph 1005mb 41f
5:00pm 23 36 mph 1006mb 41f
4:00pm 17 36 mph 1006mb 41f
3:00pm 19 41 mph 1006mb 41f
2:00pm 23 40 mph 1006mb 42f
1:00pm 21 44 mph 1006mb 43f
10:00am 29 48 mph 1005mb 42f